Time;durP1;ratioP1;P1;durP2;ratioP2;P2;SDS_P1;SDS_P2;PMS_P1;PMS_P2;Temp;Humidity;BMP_temperature;BMP_pressure;BME280_temperature;BME280_humidity;BME280_pressure;Samples;Min_cycle;Max_cycle;Signal;HPM_P1;HPM_P2
2023/08/03 00:01:04;;;;;;;8.43;2.00;;;17.00;99.90;;;;;;4968241;28;20710;-85
2023/08/03 00:03:32;;;;;;;6.18;2.42;;;17.10;99.90;;;;;;4968101;28;20218;-86
2023/08/03 00:06:00;;;;;;;4.25;2.30;;;17.00;99.90;;;;;;4968145;28;20203;-84
2023/08/03 00:08:28;;;;;;;4.15;2.10;;;16.80;99.90;;;;;;4967778;28;20271;-84
2023/08/03 00:10:56;;;;;;;7.65;2.47;;;16.90;99.90;;;;;;4968420;28;20922;-85
2023/08/03 00:13:24;;;;;;;8.10;2.10;;;16.90;99.90;;;;;;4969042;28;20203;-84
2023/08/03 00:15:51;;;;;;;5.28;1.83;;;17.00;99.90;;;;;;4968540;28;20196;-85
2023/08/03 00:18:19;;;;;;;4.85;2.30;;;17.00;99.90;;;;;;4969562;28;20198;-84
2023/08/03 00:20:47;;;;;;;6.43;2.13;;;17.00;99.90;;;;;;4967408;28;20193;-85
2023/08/03 00:23:15;;;;;;;3.90;1.90;;;17.00;99.90;;;;;;4969763;28;20195;-85
2023/08/03 00:25:43;;;;;;;9.45;2.60;;;17.00;99.90;;;;;;5013929;28;20192;-85
2023/08/03 00:28:10;;;;;;;11.43;2.20;;;16.80;99.90;;;;;;4968570;28;20192;-85
2023/08/03 00:30:38;;;;;;;9.02;2.00;;;16.80;99.90;;;;;;4969143;28;20219;-86
2023/08/03 00:33:05;;;;;;;6.75;2.63;;;16.80;99.90;;;;;;4969104;28;20875;-85
2023/08/03 00:35:33;;;;;;;5.00;2.35;;;16.80;99.90;;;;;;4968983;28;20203;-84
2023/08/03 00:38:00;;;;;;;7.60;1.90;;;16.80;99.90;;;;;;4968472;28;20247;-85
2023/08/03 00:40:28;;;;;;;7.57;2.10;;;16.80;99.90;;;;;;4969183;28;20199;-84
2023/08/03 00:42:55;;;;;;;7.97;2.22;;;16.80;99.90;;;;;;4969009;28;20666;-84
2023/08/03 00:45:25;;;;;;;7.60;2.25;;;16.80;99.90;;;;;;4968819;28;20191;-84
2023/08/03 00:47:53;;;;;;;5.18;2.20;;;16.80;99.90;;;;;;4969065;28;20195;-84
2023/08/03 00:50:20;;;;;;;4.70;2.15;;;16.70;99.90;;;;;;4968932;28;20200;-84
2023/08/03 00:52:48;;;;;;;5.32;2.55;;;16.60;99.90;;;;;;4967343;28;20723;-85
2023/08/03 00:55:15;;;;;;;6.38;2.40;;;16.50;99.90;;;;;;4968850;28;20185;-84
2023/08/03 00:57:43;;;;;;;7.57;2.63;;;16.40;99.90;;;;;;4969350;28;20263;-86
2023/08/03 01:00:11;;;;;;;8.20;2.42;;;16.50;99.90;;;;;;4969128;28;20192;-85
2023/08/03 01:02:39;;;;;;;7.50;2.20;;;16.50;99.90;;;;;;4968315;28;20220;-83
2023/08/03 01:05:07;;;;;;;7.13;2.17;;;16.60;99.90;;;;;;4968558;28;20196;-84
2023/08/03 01:07:34;;;;;;;6.68;2.33;;;16.70;99.90;;;;;;4968567;28;20192;-83
2023/08/03 01:10:02;;;;;;;12.02;3.05;;;16.70;99.90;;;;;;5039767;28;20204;-85
2023/08/03 01:12:30;;;;;;;5.10;2.50;;;16.70;99.90;;;;;;4957459;28;20619;-85
2023/08/03 01:14:58;;;;;;;6.30;2.58;;;16.50;99.90;;;;;;4967061;28;20204;-85
2023/08/03 01:17:25;;;;;;;6.60;3.17;;;16.50;99.90;;;;;;4968726;28;20204;-83
2023/08/03 01:19:53;;;;;;;5.82;2.30;;;16.40;99.90;;;;;;4967744;28;20188;-85
2023/08/03 01:22:21;;;;;;;6.32;3.50;;;16.50;99.90;;;;;;4964039;28;20210;-82
2023/08/03 01:24:49;;;;;;;3.28;2.30;;;16.50;99.90;;;;;;4966509;28;20196;-84
2023/08/03 01:27:16;;;;;;;4.43;2.95;;;16.50;99.90;;;;;;4967096;28;20200;-84
2023/08/03 01:29:44;;;;;;;5.68;2.80;;;16.60;99.90;;;;;;4966845;28;20708;-84
2023/08/03 01:32:12;;;;;;;3.45;2.67;;;16.60;99.90;;;;;;4950683;28;20207;-83
2023/08/03 01:34:39;;;;;;;5.53;2.72;;;16.60;99.90;;;;;;4966937;28;20192;-85
2023/08/03 01:37:08;;;;;;;5.00;2.65;;;16.60;99.90;;;;;;4950256;28;20665;-84
2023/08/03 01:39:35;;;;;;;6.07;3.22;;;16.60;99.90;;;;;;4968168;28;20719;-84
2023/08/03 01:42:03;;;;;;;4.68;3.22;;;16.50;99.90;;;;;;4966097;28;20188;-85
2023/08/03 01:44:31;;;;;;;3.65;2.40;;;16.30;99.90;;;;;;4967803;28;20659;-83
2023/08/03 01:46:59;;;;;;;3.50;2.42;;;16.40;99.90;;;;;;4966255;28;20775;-84
2023/08/03 01:49:29;;;;;;;3.55;2.60;;;16.30;99.90;;;;;;4965934;28;20192;-83
2023/08/03 01:51:56;;;;;;;3.00;2.20;;;16.30;99.90;;;;;;4966631;28;20199;-86
2023/08/03 01:54:24;;;;;;;3.20;2.63;;;16.40;99.90;;;;;;4967733;28;20202;-84
2023/08/03 01:56:53;;;;;;;2.63;2.08;;;16.40;99.90;;;;;;4966947;28;20188;-84
2023/08/03 01:59:21;;;;;;;2.88;1.95;;;16.30;99.90;;;;;;4966125;28;20195;-85
2023/08/03 02:01:49;;;;;;;3.28;2.40;;;16.40;99.90;;;;;;4964443;28;20690;-85
2023/08/03 02:04:17;;;;;;;4.63;2.38;;;16.40;99.90;;;;;;4963200;28;20216;-83
2023/08/03 02:06:49;;;;;;;3.47;2.13;;;16.30;99.90;;;;;;4966005;28;20468;-84
2023/08/03 02:09:17;;;;;;;3.45;1.50;;;16.20;99.90;;;;;;4966602;28;20666;-85
2023/08/03 02:11:45;;;;;;;3.92;2.22;;;16.10;99.90;;;;;;4967998;28;20195;-84
2023/08/03 02:14:13;;;;;;;4.07;2.15;;;16.10;99.90;;;;;;4950254;28;20211;-84
2023/08/03 02:16:41;;;;;;;3.00;2.13;;;16.10;99.90;;;;;;4960461;28;20188;-84
2023/08/03 02:19:09;;;;;;;3.50;2.80;;;16.10;99.90;;;;;;4962262;28;20882;-84
2023/08/03 02:21:36;;;;;;;3.85;2.80;;;16.10;99.90;;;;;;4966212;28;20195;-84
2023/08/03 02:24:04;;;;;;;4.57;2.90;;;16.10;99.90;;;;;;4965339;28;20193;-84
2023/08/03 02:26:32;;;;;;;4.70;3.08;;;16.10;99.90;;;;;;4966288;28;20207;-85
2023/08/03 02:29:00;;;;;;;6.18;3.28;;;16.10;99.90;;;;;;4967498;28;20636;-85
2023/08/03 02:31:28;;;;;;;6.45;3.55;;;16.10;99.90;;;;;;4963075;28;20197;-85
2023/08/03 02:33:56;;;;;;;5.22;3.22;;;16.10;99.90;;;;;;4962798;28;20204;-84
2023/08/03 02:36:31;;;;;;;5.75;3.53;;;16.00;99.90;;;;;;4964280;28;20246;-82
2023/08/03 02:39:04;;;;;;;4.30;3.22;;;16.00;99.90;;;;;;4966718;28;20510;-85
2023/08/03 02:41:34;;;;;;;6.53;3.63;;;16.00;99.90;;;;;;4966088;28;20658;-83
2023/08/03 02:44:04;;;;;;;5.28;3.70;;;15.90;99.90;;;;;;4966138;28;20528;-85
2023/08/03 02:46:35;;;;;;;5.47;3.58;;;15.90;99.90;;;;;;4950366;28;20195;-84
2023/08/03 02:49:03;;;;;;;5.32;3.40;;;16.00;99.90;;;;;;5011055;28;20212;-85
2023/08/03 02:51:31;;;;;;;3.35;2.75;;;16.00;99.90;;;;;;4966082;28;20210;-83
2023/08/03 02:53:59;;;;;;;3.83;3.03;;;16.00;99.90;;;;;;4952813;28;20278;-85
2023/08/03 02:56:33;;;;;;;5.75;3.17;;;16.00;99.90;;;;;;4980866;28;20199;-85
2023/08/03 02:59:02;;;;;;;3.47;2.63;;;16.00;99.90;;;;;;4966257;28;20192;-83
2023/08/03 03:01:37;;;;;;;6.30;3.22;;;16.00;99.90;;;;;;4957401;28;20567;-84
2023/08/03 03:04:06;;;;;;;4.60;3.40;;;16.00;99.90;;;;;;4968831;28;20196;-85
2023/08/03 03:06:39;;;;;;;4.32;3.40;;;15.90;99.90;;;;;;4965234;28;20203;-84
2023/08/03 03:09:08;;;;;;;8.52;3.63;;;16.00;99.90;;;;;;4966385;28;20292;-84
2023/08/03 03:11:37;;;;;;;3.67;2.72;;;15.90;99.90;;;;;;4981647;28;20197;-85
2023/08/03 03:14:06;;;;;;;7.53;3.65;;;16.00;99.90;;;;;;4963032;28;20289;-85
2023/08/03 03:16:34;;;;;;;6.25;3.42;;;16.00;99.90;;;;;;4970306;28;20245;-85
2023/08/03 03:19:02;;;;;;;4.70;3.40;;;16.00;99.90;;;;;;4970883;28;20541;-85
2023/08/03 03:21:30;;;;;;;4.80;3.70;;;16.10;99.90;;;;;;4964441;28;20211;-83
2023/08/03 03:23:57;;;;;;;5.75;3.72;;;16.00;99.90;;;;;;4968792;28;20195;-83
2023/08/03 03:26:25;;;;;;;6.03;4.18;;;15.90;99.90;;;;;;4970256;28;20180;-84
2023/08/03 03:28:52;;;;;;;5.03;3.95;;;15.90;99.90;;;;;;4968285;28;20230;-83
2023/08/03 03:31:28;;;;;;;4.88;3.35;;;15.90;99.90;;;;;;4969952;28;20190;-84
2023/08/03 03:33:58;;;;;;;6.22;3.85;;;15.90;99.90;;;;;;4960897;28;20352;-83
2023/08/03 03:36:25;;;;;;;5.50;3.63;;;15.80;99.90;;;;;;4968304;28;20210;-83
2023/08/03 03:38:53;;;;;;;5.47;3.95;;;15.80;99.90;;;;;;4969148;28;20203;-85
2023/08/03 03:41:22;;;;;;;5.22;4.03;;;15.90;99.90;;;;;;4970724;28;20203;-85
2023/08/03 03:43:50;;;;;;;10.57;4.40;;;15.90;99.90;;;;;;4968531;28;20199;-84
2023/08/03 03:46:18;;;;;;;4.47;3.70;;;15.90;99.90;;;;;;4969728;28;20698;-84
2023/08/03 03:48:45;;;;;;;6.13;3.55;;;15.90;99.90;;;;;;4965209;28;20197;-84
2023/08/03 03:51:15;;;;;;;4.63;3.30;;;15.90;99.90;;;;;;4964329;28;20210;-85
2023/08/03 03:53:42;;;;;;;5.00;3.28;;;16.00;99.90;;;;;;4978613;28;20231;-84
2023/08/03 03:56:14;;;;;;;5.00;3.90;;;16.00;99.90;;;;;;4968360;28;20273;-84
2023/08/03 03:58:41;;;;;;;6.05;3.80;;;16.00;99.90;;;;;;4968743;28;20188;-85
2023/08/03 04:01:09;;;;;;;5.32;3.72;;;15.90;99.90;;;;;;4969584;28;20211;-84
2023/08/03 04:03:37;;;;;;;5.50;3.88;;;16.00;99.90;;;;;;4968125;28;20196;-84
2023/08/03 04:06:08;;;;;;;5.50;4.03;;;16.00;99.90;;;;;;4982106;28;20205;-83
2023/08/03 04:08:35;;;;;;;6.60;3.30;;;16.00;99.90;;;;;;4964881;28;20220;-84
2023/08/03 04:11:03;;;;;;;5.78;4.15;;;16.10;99.90;;;;;;4959839;28;20196;-84
2023/08/03 04:13:30;;;;;;;4.30;3.42;;;16.20;99.90;;;;;;4960179;28;20289;-84
2023/08/03 04:15:58;;;;;;;5.13;3.83;;;16.30;99.90;;;;;;4960209;28;20644;-84
2023/08/03 04:18:30;;;;;;;5.53;4.38;;;16.30;99.90;;;;;;4960567;28;20733;-83
2023/08/03 04:20:58;;;;;;;4.65;3.28;;;16.30;99.90;;;;;;4949785;28;20992;-83
2023/08/03 04:23:25;;;;;;;5.40;4.28;;;16.30;99.90;;;;;;4964449;28;20184;-85
2023/08/03 04:25:54;;;;;;;5.75;4.22;;;16.30;99.90;;;;;;4965384;28;20690;-84
2023/08/03 04:28:24;;;;;;;4.68;3.47;;;16.30;99.90;;;;;;4961263;28;20205;-84
2023/08/03 04:30:52;;;;;;;4.45;3.40;;;16.30;99.90;;;;;;4968741;28;20188;-84
2023/08/03 04:33:19;;;;;;;5.95;3.83;;;16.30;99.90;;;;;;4967491;28;20220;-83
2023/08/03 04:35:52;;;;;;;6.40;4.13;;;16.30;99.90;;;;;;4969207;28;20680;-85
2023/08/03 04:38:24;;;;;;;4.95;3.55;;;16.30;99.90;;;;;;4965741;28;20232;-84
2023/08/03 04:40:56;;;;;;;5.22;3.45;;;16.30;99.90;;;;;;4964454;28;20205;-83
2023/08/03 04:43:28;;;;;;;5.20;4.35;;;16.40;99.90;;;;;;4956338;28;20280;-84
2023/08/03 04:45:56;;;;;;;5.10;3.90;;;16.30;99.90;;;;;;4967221;28;20188;-84
2023/08/03 04:48:24;;;;;;;6.10;4.35;;;16.20;99.90;;;;;;4967739;28;20302;-85
2023/08/03 04:50:53;;;;;;;6.30;5.20;;;16.30;99.90;;;;;;4966139;28;20200;-84
2023/08/03 04:53:22;;;;;;;6.07;5.03;;;16.20;99.90;;;;;;4967742;28;20211;-84
2023/08/03 04:55:50;;;;;;;6.97;5.32;;;16.20;99.90;;;;;;4967720;28;20200;-84
2023/08/03 04:58:18;;;;;;;7.25;5.35;;;16.30;99.90;;;;;;4968904;28;20191;-84
2023/08/03 05:00:48;;;;;;;8.27;5.75;;;16.30;99.90;;;;;;4960002;28;20208;-84
2023/08/03 05:03:16;;;;;;;6.38;4.88;;;16.30;99.90;;;;;;4951453;28;20192;-85
2023/08/03 05:05:44;;;;;;;10.55;5.88;;;16.30;99.90;;;;;;4966734;28;20646;-85
2023/08/03 05:08:15;;;;;;;9.85;6.30;;;16.30;99.90;;;;;;4981437;28;20204;-84
2023/08/03 05:10:42;;;;;;;7.72;6.05;;;16.40;99.90;;;;;;4967576;28;20230;-84
2023/08/03 05:13:10;;;;;;;11.68;6.40;;;16.50;99.90;;;;;;4949831;28;20458;-84
2023/08/03 05:15:38;;;;;;;8.80;6.82;;;16.40;99.90;;;;;;4964275;28;20200;-84
2023/08/03 05:18:05;;;;;;;10.63;6.75;;;16.40;99.90;;;;;;4968754;28;20216;-85
2023/08/03 05:20:33;;;;;;;9.32;6.75;;;16.30;99.90;;;;;;4968817;28;20188;-84
2023/08/03 05:23:01;;;;;;;10.48;6.65;;;16.40;99.90;;;;;;4964008;28;20195;-85
2023/08/03 05:25:28;;;;;;;6.68;5.63;;;16.40;99.90;;;;;;4962851;28;20793;-84
2023/08/03 05:27:56;;;;;;;7.05;5.35;;;16.50;99.90;;;;;;4968226;28;20692;-85
2023/08/03 05:30:23;;;;;;;7.20;5.55;;;16.60;99.90;;;;;;4968398;28;20176;-85
2023/08/03 05:32:53;;;;;;;7.50;5.70;;;16.60;99.90;;;;;;4968255;28;20911;-83
2023/08/03 05:35:20;;;;;;;9.40;5.93;;;16.50;99.90;;;;;;4951706;28;20854;-84
2023/08/03 05:37:51;;;;;;;8.57;6.72;;;16.50;99.90;;;;;;4964725;28;20691;-85
2023/08/03 05:40:20;;;;;;;8.02;6.35;;;16.60;99.90;;;;;;4960232;28;20296;-84
2023/08/03 05:42:48;;;;;;;7.72;6.15;;;16.60;99.90;;;;;;4965195;28;20534;-83
2023/08/03 05:45:35;;;;;;;7.47;5.72;;;16.60;99.90;;;;;;4968325;28;20195;-84
2023/08/03 05:48:04;;;;;;;11.25;7.30;;;16.60;99.90;;;;;;4968273;28;20195;-84
2023/08/03 05:50:33;;;;;;;10.23;7.13;;;16.70;99.90;;;;;;4967654;28;20203;-84
2023/08/03 05:53:00;;;;;;;7.68;6.25;;;16.80;99.90;;;;;;4963375;28;20653;-83
2023/08/03 05:55:29;;;;;;;8.55;6.22;;;16.90;99.90;;;;;;4961324;28;20241;-84
2023/08/03 05:57:56;;;;;;;8.82;6.65;;;16.80;99.90;;;;;;4966973;28;20615;-84
2023/08/03 06:00:26;;;;;;;9.02;7.28;;;16.90;99.90;;;;;;4966590;28;20274;-84
2023/08/03 06:02:57;;;;;;;8.90;6.65;;;16.90;99.90;;;;;;4968200;28;20550;-84
2023/08/03 06:05:36;;;;;;;8.88;5.72;;;16.90;99.90;;;;;;4968536;28;20907;-85
2023/08/03 06:08:17;;;;;;;8.38;6.88;;;17.00;99.90;;;;;;4976388;28;20279;-85
2023/08/03 06:10:53;;;;;;;10.95;6.55;;;17.10;99.90;;;;;;4948102;28;20932;-85
2023/08/03 06:13:26;;;;;;;11.13;7.05;;;17.10;99.90;;;;;;4967617;28;20191;-84
2023/08/03 06:15:54;;;;;;;12.93;6.60;;;17.10;99.90;;;;;;4966751;28;20195;-85
2023/08/03 06:18:22;;;;;;;7.13;6.20;;;17.10;99.90;;;;;;4964067;28;20219;-84
2023/08/03 06:20:51;;;;;;;8.02;5.78;;;17.10;99.90;;;;;;4964125;28;20234;-84
2023/08/03 06:23:22;;;;;;;7.15;6.15;;;17.20;99.90;;;;;;4965567;28;20238;-84
2023/08/03 06:25:54;;;;;;;7.68;5.88;;;17.30;99.90;;;;;;4980401;28;20192;-83
2023/08/03 06:28:24;;;;;;;9.40;6.05;;;17.30;99.90;;;;;;4964840;28;20762;-85
2023/08/03 06:30:52;;;;;;;9.80;6.30;;;17.30;99.90;;;;;;4954939;28;20263;-85
2023/08/03 06:33:22;;;;;;;8.07;6.22;;;17.30;99.90;;;;;;4973841;28;20208;-84
2023/08/03 06:36:00;;;;;;;7.85;6.05;;;17.30;99.90;;;;;;4945816;28;20187;-85
2023/08/03 06:38:30;;;;;;;7.13;5.85;;;17.40;99.90;;;;;;4968566;28;20303;-84
2023/08/03 06:40:59;;;;;;;9.00;5.93;;;17.50;99.90;;;;;;4962065;28;20196;-84
2023/08/03 06:43:30;;;;;;;8.70;6.10;;;17.50;99.90;;;;;;4960465;28;20691;-84
2023/08/03 06:45:58;;;;;;;12.60;5.82;;;17.50;99.90;;;;;;4967137;28;20222;-85
2023/08/03 06:48:27;;;;;;;7.05;5.07;;;17.50;99.90;;;;;;4961193;28;20203;-84
2023/08/03 06:50:57;;;;;;;7.47;5.90;;;17.50;99.90;;;;;;4959969;28;20287;-83
2023/08/03 06:53:26;;;;;;;5.88;5.00;;;17.50;99.90;;;;;;4960794;28;20201;-84
2023/08/03 06:55:54;;;;;;;9.68;5.28;;;17.50;99.90;;;;;;4967239;28;20844;-82
2023/08/03 06:58:22;;;;;;;9.32;5.38;;;17.60;99.90;;;;;;4967565;28;20188;-83
2023/08/03 07:00:51;;;;;;;9.13;5.50;;;17.60;99.90;;;;;;4962536;28;20299;-84
2023/08/03 07:03:20;;;;;;;7.95;5.32;;;17.70;99.90;;;;;;4963344;28;20188;-84
2023/08/03 07:05:48;;;;;;;7.93;5.03;;;17.80;99.90;;;;;;4960108;28;20192;-83
2023/08/03 07:08:17;;;;;;;7.28;5.40;;;17.80;99.90;;;;;;4959755;28;20184;-84
2023/08/03 07:10:46;;;;;;;6.68;5.18;;;17.90;99.90;;;;;;4959044;28;20192;-81
2023/08/03 07:13:23;;;;;;;8.90;5.03;;;17.90;99.90;;;;;;4959014;28;20280;-83
2023/08/03 07:15:52;;;;;;;6.82;5.22;;;17.90;99.90;;;;;;4965911;28;20270;-84
2023/08/03 07:18:22;;;;;;;7.55;5.20;;;18.00;99.90;;;;;;4970892;28;20180;-84
2023/08/03 07:20:50;;;;;;;9.55;5.88;;;18.00;99.90;;;;;;4968807;28;20210;-86
2023/08/03 07:23:18;;;;;;;9.52;5.35;;;18.00;99.90;;;;;;4970089;28;20583;-86
2023/08/03 07:25:45;;;;;;;6.07;5.35;;;18.10;99.90;;;;;;4970259;28;20191;-85
2023/08/03 07:28:13;;;;;;;8.25;5.25;;;18.10;99.90;;;;;;4970490;28;20309;-84
2023/08/03 07:30:41;;;;;;;7.72;5.68;;;18.20;99.90;;;;;;4970539;28;20242;-85
2023/08/03 07:33:08;;;;;;;9.93;5.43;;;18.20;99.90;;;;;;4971004;28;20194;-85
2023/08/03 07:35:38;;;;;;;5.18;4.50;;;18.20;99.90;;;;;;4969010;28;20212;-85
2023/08/03 07:38:06;;;;;;;6.28;4.93;;;18.30;99.90;;;;;;4957768;28;20224;-86
2023/08/03 07:40:34;;;;;;;6.70;5.05;;;18.30;99.90;;;;;;4968364;28;20215;-86
2023/08/03 07:43:01;;;;;;;7.70;4.00;;;18.40;99.90;;;;;;4967859;28;20192;-86
2023/08/03 07:45:28;;;;;;;8.70;4.45;;;18.50;99.90;;;;;;4952285;28;20776;-86
2023/08/03 07:47:59;;;;;;;7.90;4.60;;;18.60;99.90;;;;;;4964223;28;20245;-84
2023/08/03 07:50:27;;;;;;;8.25;4.90;;;18.60;99.90;;;;;;4985791;28;20820;-86
2023/08/03 07:52:54;;;;;;;6.07;4.18;;;18.70;99.90;;;;;;4969794;28;20688;-83
2023/08/03 07:55:22;;;;;;;6.18;4.82;;;18.80;99.90;;;;;;4968846;28;20704;-84
2023/08/03 07:57:49;;;;;;;7.00;5.00;;;18.90;99.90;;;;;;4968356;28;20192;-84
2023/08/03 08:00:17;;;;;;;5.90;4.78;;;18.80;99.90;;;;;;4968491;28;20658;-84
2023/08/03 08:02:44;;;;;;;6.95;4.70;;;18.90;99.90;;;;;;4975023;28;20207;-85
2023/08/03 08:05:12;;;;;;;5.03;4.47;;;18.90;99.90;;;;;;4968490;28;20189;-85
2023/08/03 08:07:40;;;;;;;6.35;4.68;;;18.80;99.90;;;;;;4968463;28;20196;-85
2023/08/03 08:10:11;;;;;;;7.38;5.00;;;18.90;99.90;;;;;;5003633;28;20204;-86
2023/08/03 08:12:38;;;;;;;6.63;5.15;;;18.90;99.90;;;;;;4980466;28;20196;-85
2023/08/03 08:15:06;;;;;;;6.32;4.55;;;18.90;99.90;;;;;;5020279;28;20230;-85
2023/08/03 08:17:34;;;;;;;10.02;4.68;;;19.00;99.90;;;;;;4969405;28;20188;-85
2023/08/03 08:20:01;;;;;;;11.23;4.78;;;19.10;99.90;;;;;;4968179;28;20699;-84
2023/08/03 08:22:29;;;;;;;6.55;4.80;;;19.10;99.90;;;;;;4968328;28;20257;-87
2023/08/03 08:24:57;;;;;;;5.22;4.32;;;19.10;99.90;;;;;;4970190;28;20188;-84
2023/08/03 08:27:24;;;;;;;7.50;4.55;;;19.20;99.90;;;;;;4968474;28;20284;-87
2023/08/03 08:29:53;;;;;;;9.75;4.32;;;19.20;99.90;;;;;;4969461;28;20188;-85
2023/08/03 08:32:20;;;;;;;7.90;4.63;;;19.20;99.90;;;;;;4967583;28;20189;-84
2023/08/03 08:34:48;;;;;;;8.82;4.50;;;19.30;99.90;;;;;;4967618;28;20324;-85
2023/08/03 08:37:16;;;;;;;9.75;4.60;;;19.30;99.90;;;;;;4967757;28;20227;-84
2023/08/03 08:39:44;;;;;;;8.52;4.40;;;19.30;99.90;;;;;;4968950;28;20192;-84
2023/08/03 08:42:13;;;;;;;6.25;4.63;;;19.40;99.90;;;;;;4968026;28;20276;-86
2023/08/03 08:44:40;;;;;;;5.22;3.85;;;19.40;99.90;;;;;;4968484;28;20196;-85
2023/08/03 08:47:08;;;;;;;5.85;4.43;;;19.40;99.90;;;;;;4969395;28;20207;-86
2023/08/03 08:49:36;;;;;;;10.52;4.32;;;19.40;99.90;;;;;;4969258;28;20635;-84
2023/08/03 08:52:09;;;;;;;8.48;4.60;;;19.40;99.90;;;;;;4957303;28;20229;-86
2023/08/03 08:54:37;;;;;;;5.85;4.50;;;19.50;99.90;;;;;;4967654;28;20208;-84
2023/08/03 08:57:08;;;;;;;5.55;4.00;;;19.50;99.90;;;;;;4969030;28;20196;-86
2023/08/03 09:00:05;;;;;;;6.72;3.92;;;19.60;99.90;;;;;;4967829;28;20257;-86
2023/08/03 09:02:33;;;;;;;5.63;4.38;;;19.80;99.90;;;;;;4972393;28;20206;-86
2023/08/03 09:05:16;;;;;;;4.80;4.00;;;20.00;99.90;;;;;;4968346;28;20268;-87
2023/08/03 09:07:57;;;;;;;6.85;4.20;;;20.10;99.90;;;;;;4968030;28;20200;-85
2023/08/03 09:10:25;;;;;;;11.85;4.13;;;20.00;99.90;;;;;;4967507;28;20805;-84
2023/08/03 09:12:52;;;;;;;7.70;4.30;;;20.00;99.90;;;;;;4967312;28;20198;-84
2023/08/03 09:15:41;;;;;;;6.13;4.20;;;20.00;99.90;;;;;;4973707;28;20301;-86
2023/08/03 09:18:10;;;;;;;6.65;4.53;;;20.10;99.90;;;;;;4968478;28;20196;-86
2023/08/03 09:20:40;;;;;;;5.10;3.92;;;20.20;99.90;;;;;;4963844;28;20989;-85
2023/08/03 09:23:27;;;;;;;5.95;3.90;;;20.40;99.90;;;;;;4963983;28;20192;-83
2023/08/03 09:26:22;;;;;;;4.53;3.80;;;20.50;99.90;;;;;;4952336;28;20195;-83
2023/08/03 09:28:53;;;;;;;9.32;4.18;;;20.60;99.90;;;;;;4944841;28;20183;-85
2023/08/03 09:31:23;;;;;;;5.97;3.80;;;20.60;99.90;;;;;;4965042;28;20857;-85
2023/08/03 09:33:59;;;;;;;11.55;3.97;;;20.60;99.90;;;;;;4973053;28;20254;-85
2023/08/03 09:36:28;;;;;;;5.63;3.30;;;20.50;99.90;;;;;;4963957;28;20278;-85
2023/08/03 09:39:12;;;;;;;5.95;3.80;;;20.30;99.90;;;;;;4965004;28;20192;-84
2023/08/03 09:41:43;;;;;;;4.75;3.92;;;20.30;99.90;;;;;;4962351;28;20679;-85
2023/08/03 09:44:16;;;;;;;4.38;3.58;;;20.30;99.90;;;;;;4963018;28;20717;-85
2023/08/03 09:46:46;;;;;;;8.18;4.18;;;20.30;99.90;;;;;;4964527;28;21090;-86
2023/08/03 09:49:15;;;;;;;6.30;3.63;;;20.20;99.90;;;;;;4964153;28;20237;-86
2023/08/03 09:51:44;;;;;;;6.70;4.28;;;20.20;99.90;;;;;;4964376;28;20546;-85
2023/08/03 09:54:23;;;;;;;5.25;3.80;;;20.20;99.90;;;;;;4964082;28;20238;-85
2023/08/03 09:56:58;;;;;;;5.47;3.83;;;20.20;99.90;;;;;;4946507;29;20653;-83
2023/08/03 09:59:33;;;;;;;7.47;4.53;;;20.30;99.90;;;;;;4955191;28;20182;-86
2023/08/03 10:02:05;;;;;;;6.80;4.30;;;20.30;99.90;;;;;;4941253;28;20203;-84
2023/08/03 10:04:42;;;;;;;9.82;3.90;;;20.30;99.90;;;;;;4954740;28;20599;-84
2023/08/03 10:07:14;;;;;;;6.38;3.83;;;20.40;99.90;;;;;;4956526;28;20200;-86
2023/08/03 10:09:45;;;;;;;7.18;4.25;;;20.20;99.90;;;;;;4952010;28;20267;-86
2023/08/03 10:12:40;;;;;;;5.25;3.65;;;20.20;99.90;;;;;;4936973;28;20375;-86
2023/08/03 10:15:12;;;;;;;10.57;4.25;;;20.20;99.90;;;;;;4954578;28;20196;-85
2023/08/03 10:17:40;;;;;;;5.35;3.92;;;20.30;99.90;;;;;;4955920;28;20241;-86
2023/08/03 10:20:13;;;;;;;7.60;4.75;;;20.30;99.90;;;;;;4962077;28;20607;-85
2023/08/03 10:23:10;;;;;;;5.43;4.03;;;20.20;99.90;;;;;;4962819;28;20688;-85
2023/08/03 10:25:52;;;;;;;7.57;4.20;;;20.20;99.90;;;;;;4962269;28;20196;-85
2023/08/03 10:28:21;;;;;;;6.72;3.90;;;20.20;99.90;;;;;;5015435;28;20189;-84
2023/08/03 10:31:11;;;;;;;6.18;4.05;;;20.20;99.90;;;;;;4961584;28;20250;-85
2023/08/03 10:33:51;;;;;;;6.68;4.28;;;20.20;99.90;;;;;;4959929;28;20670;-86
2023/08/03 10:36:28;;;;;;;6.38;4.63;;;20.40;99.90;;;;;;4966317;28;20226;-87
2023/08/03 10:38:57;;;;;;;7.95;4.45;;;20.30;99.90;;;;;;4962407;28;20192;-85
2023/08/03 10:41:27;;;;;;;6.22;4.18;;;20.30;99.90;;;;;;4963086;28;20263;-86
2023/08/03 10:44:09;;;;;;;5.20;4.10;;;20.20;99.90;;;;;;4963580;28;20188;-87
2023/08/03 10:46:45;;;;;;;8.93;4.20;;;20.20;99.90;;;;;;4962845;28;20198;-85
2023/08/03 10:49:22;;;;;;;8.63;3.78;;;20.20;99.90;;;;;;4963613;28;20183;-85
2023/08/03 10:52:14;;;;;;;3.95;3.55;;;20.20;99.90;;;;;;4961332;28;20199;-84
2023/08/03 10:54:42;;;;;;;4.60;3.95;;;20.30;99.90;;;;;;4974823;28;20216;-86
2023/08/03 10:57:13;;;;;;;4.97;3.92;;;20.30;99.90;;;;;;4960239;28;20302;-87
2023/08/03 10:59:49;;;;;;;7.63;4.15;;;20.30;99.90;;;;;;4957440;28;20838;-85
2023/08/03 11:02:31;;;;;;;6.28;4.05;;;20.20;99.90;;;;;;4943354;28;20223;-84
2023/08/03 11:05:01;;;;;;;4.85;3.63;;;20.10;99.90;;;;;;4961924;28;20203;-85
2023/08/03 11:07:42;;;;;;;5.38;3.75;;;20.10;99.90;;;;;;4959780;28;20628;-84
2023/08/03 11:10:17;;;;;;;6.07;3.70;;;20.10;99.90;;;;;;4958864;28;20744;-86
2023/08/03 11:12:46;;;;;;;8.25;3.25;;;20.10;99.90;;;;;;4960365;28;20200;-86
2023/08/03 11:15:17;;;;;;;5.97;3.55;;;20.20;99.90;;;;;;4960783;28;20204;-84
2023/08/03 11:17:50;;;;;;;4.97;3.45;;;20.20;99.90;;;;;;4961866;28;20235;-87
2023/08/03 11:20:19;;;;;;;8.18;3.58;;;20.20;99.90;;;;;;4957550;28;20192;-85
2023/08/03 11:22:47;;;;;;;4.90;3.38;;;20.10;99.90;;;;;;4962492;28;20191;-84
2023/08/03 11:25:18;;;;;;;5.88;3.70;;;20.10;99.90;;;;;;4960684;28;20192;-86
2023/08/03 11:27:46;;;;;;;8.52;3.47;;;20.10;99.90;;;;;;4960501;28;20707;-85
2023/08/03 11:30:13;;;;;;;4.65;3.47;;;20.10;99.90;;;;;;4964757;28;20200;-85
2023/08/03 11:32:41;;;;;;;6.38;3.40;;;20.10;99.90;;;;;;4965080;28;20199;-86
2023/08/03 11:35:10;;;;;;;5.15;3.50;;;20.10;99.90;;;;;;4964175;28;20291;-85
2023/08/03 11:37:39;;;;;;;5.85;3.22;;;20.00;99.90;;;;;;4964705;28;20238;-84
2023/08/03 11:40:11;;;;;;;6.68;3.50;;;20.10;99.90;;;;;;4947593;28;20232;-86
2023/08/03 11:42:42;;;;;;;6.50;3.67;;;20.10;99.90;;;;;;4962593;28;20219;-85
2023/08/03 11:45:12;;;;;;;4.30;3.45;;;20.10;99.90;;;;;;4963957;28;20212;-87
2023/08/03 11:47:45;;;;;;;8.18;3.50;;;20.20;99.90;;;;;;4964554;28;20200;-85
2023/08/03 11:50:17;;;;;;;7.88;3.58;;;20.30;99.90;;;;;;4963688;28;20188;-83
2023/08/03 11:52:46;;;;;;;4.30;2.90;;;20.20;99.90;;;;;;4964431;28;20198;-87
2023/08/03 11:55:34;;;;;;;7.13;3.95;;;20.20;99.90;;;;;;4963204;28;20211;-87
2023/08/03 11:58:09;;;;;;;4.32;3.75;;;20.10;99.90;;;;;;4966111;28;20188;-85
2023/08/03 12:00:40;;;;;;;6.95;3.95;;;20.10;99.90;;;;;;4965072;28;20192;-85
2023/08/03 12:03:08;;;;;;;4.70;4.13;;;20.10;99.90;;;;;;4963830;28;20184;-86
2023/08/03 12:05:52;;;;;;;5.07;4.20;;;20.00;99.90;;;;;;4959724;28;20219;-85
2023/08/03 12:08:41;;;;;;;8.23;4.45;;;19.90;99.90;;;;;;4962558;28;20188;-84
2023/08/03 12:11:09;;;;;;;5.40;3.97;;;19.80;99.90;;;;;;4966114;28;20283;-86
2023/08/03 12:13:43;;;;;;;6.10;4.50;;;19.80;99.90;;;;;;4964802;28;21108;-86
2023/08/03 12:16:18;;;;;;;6.53;4.35;;;19.80;99.90;;;;;;4965268;28;20204;-85
2023/08/03 12:18:49;;;;;;;10.95;4.60;;;19.90;99.90;;;;;;4932751;28;20223;-84
2023/08/03 12:21:17;;;;;;;7.93;4.30;;;19.90;99.90;;;;;;4949017;28;20200;-83
2023/08/03 12:23:45;;;;;;;6.97;4.82;;;19.90;99.90;;;;;;4963924;28;20639;-86
2023/08/03 12:26:12;;;;;;;6.50;4.40;;;19.90;99.90;;;;;;4965349;28;20250;-86
2023/08/03 12:28:40;;;;;;;6.68;4.55;;;20.10;99.90;;;;;;4963493;28;20214;-85
2023/08/03 12:31:09;;;;;;;5.55;4.40;;;20.20;99.90;;;;;;4965515;28;20201;-86
2023/08/03 12:33:37;;;;;;;5.88;4.45;;;20.20;99.90;;;;;;4964927;28;20192;-84
2023/08/03 12:36:05;;;;;;;9.55;4.15;;;20.20;99.90;;;;;;4964065;28;20208;-86
2023/08/03 12:38:33;;;;;;;7.82;4.50;;;20.20;99.90;;;;;;4958793;28;20247;-85
2023/08/03 12:41:05;;;;;;;6.43;4.50;;;20.30;99.90;;;;;;4965817;28;20192;-87
2023/08/03 12:43:33;;;;;;;4.90;3.95;;;20.30;99.90;;;;;;4948478;28;20200;-86
2023/08/03 12:46:02;;;;;;;5.03;4.03;;;20.40;99.90;;;;;;4947754;28;20921;-85
2023/08/03 12:48:29;;;;;;;7.05;4.68;;;20.40;99.90;;;;;;4963284;28;20274;-87
2023/08/03 12:50:57;;;;;;;7.18;4.03;;;20.40;99.90;;;;;;4963621;28;20278;-84
2023/08/03 12:53:26;;;;;;;5.90;4.40;;;20.40;99.90;;;;;;4947724;28;20208;-86
2023/08/03 12:55:53;;;;;;;5.72;4.55;;;20.40;99.90;;;;;;4953098;28;20239;-83
2023/08/03 12:58:21;;;;;;;5.50;4.40;;;20.50;99.90;;;;;;4962936;28;20741;-84
2023/08/03 13:00:49;;;;;;;6.90;4.30;;;20.50;99.90;;;;;;4960133;28;20191;-85